createdAt,value
2023-04-10T00:02:04.456Z,24.03
2023-04-10T00:04:32.466Z,20.93
2023-04-10T00:07:00.483Z,21.53
2023-04-10T00:09:29.617Z,24.97
2023-04-10T00:11:57.567Z,27.73
2023-04-10T00:14:26.896Z,24.13
2023-04-10T00:16:55.013Z,25.10
2023-04-10T00:19:23.124Z,26.40
2023-04-10T00:21:51.171Z,25.40
2023-04-10T00:24:19.170Z,24.70
2023-04-10T00:26:46.938Z,24.50
2023-04-10T00:29:14.907Z,19.33
2023-04-10T00:31:44.241Z,21.50
2023-04-10T00:34:12.119Z,22.97
2023-04-10T00:36:40.017Z,20.53
2023-04-10T00:39:08.695Z,21.90
2023-04-10T00:41:36.577Z,21.53
2023-04-10T00:44:04.315Z,23.73
2023-04-10T00:46:32.823Z,17.90
2023-04-10T00:49:02.421Z,21.47
2023-04-10T00:51:31.394Z,22.53
2023-04-10T00:54:02.038Z,24.07
2023-04-10T00:56:32.355Z,22.63
2023-04-10T00:59:00.277Z,22.00
2023-04-10T01:01:28.042Z,22.27
2023-04-10T01:03:56.724Z,19.93
2023-04-10T01:06:36.825Z,20.47
2023-04-10T01:09:11.575Z,18.87
2023-04-10T01:11:52.491Z,21.27
2023-04-10T01:14:28.982Z,22.63
2023-04-10T01:17:02.684Z,23.90
2023-04-10T01:19:55.411Z,17.17
2023-04-10T01:22:27.573Z,19.17
2023-04-10T01:25:04.151Z,20.23
2023-04-10T01:27:45.303Z,17.10
2023-04-10T01:30:23.082Z,17.77
2023-04-10T01:32:57.111Z,18.47
2023-04-10T01:35:26.919Z,16.57
2023-04-10T01:37:54.983Z,22.37
2023-04-10T01:40:24.211Z,18.90
2023-04-10T01:42:56.510Z,16.97
2023-04-10T01:45:29.126Z,13.73
2023-04-10T01:47:57.647Z,16.20
2023-04-10T01:50:28.200Z,19.70
2023-04-10T01:52:57.306Z,16.13
2023-04-10T01:55:28.151Z,21.13
2023-04-10T01:57:56.519Z,21.17
2023-04-10T02:00:25.875Z,18.57
2023-04-10T02:02:53.819Z,17.77
2023-04-10T02:05:22.161Z,18.50
2023-04-10T02:07:58.695Z,19.60
2023-04-10T02:10:31.763Z,18.13
2023-04-10T02:13:02.633Z,14.43
2023-04-10T02:15:33.783Z,12.80
2023-04-10T02:18:04.821Z,13.43
2023-04-10T02:20:33.144Z,13.63
2023-04-10T02:23:04.092Z,16.83
2023-04-10T02:25:32.907Z,15.70
2023-04-10T02:28:05.108Z,82.03
2023-04-10T02:30:34.587Z,13.83
2023-04-10T02:33:02.725Z,56.13
2023-04-10T02:35:30.731Z,70.17
2023-04-10T02:37:58.558Z,53.83
2023-04-10T02:40:26.537Z,29.00
2023-04-10T02:42:54.291Z,22.37
2023-04-10T02:45:21.975Z,19.07
2023-04-10T02:47:51.118Z,18.10
2023-04-10T02:50:18.935Z,22.97
2023-04-10T02:52:46.845Z,19.67
2023-04-10T02:55:14.653Z,17.90
2023-04-10T02:57:43.069Z,20.77
2023-04-10T03:00:12.063Z,18.33
2023-04-10T03:02:39.904Z,21.47
2023-04-10T03:05:10.134Z,20.50
2023-04-10T03:07:37.989Z,21.13
2023-04-10T03:10:06.253Z,19.77
2023-04-10T03:12:34.264Z,20.80
2023-04-10T03:15:02.191Z,19.97
2023-04-10T03:17:29.944Z,20.13
2023-04-10T03:19:57.988Z,21.47
2023-04-10T03:22:27.584Z,24.13
2023-04-10T03:24:55.559Z,14.93
2023-04-10T03:27:23.389Z,15.20
2023-04-10T03:29:51.114Z,22.43
2023-04-10T03:32:18.838Z,48.87
2023-04-10T03:34:47.051Z,15.50
2023-04-10T03:37:14.760Z,14.93
2023-04-10T03:39:44.011Z,26.27
2023-04-10T03:42:12.404Z,55.90
2023-04-10T03:44:40.193Z,42.07
2023-04-10T03:47:08.189Z,21.97
2023-04-10T03:49:36.052Z,27.60
2023-04-10T03:52:03.852Z,14.07
2023-04-10T03:54:31.643Z,11.20
2023-04-10T03:57:01.475Z,30.57
2023-04-10T03:59:38.223Z,67.00
2023-04-10T04:02:08.300Z,50.03
2023-04-10T04:04:36.691Z,21.53
2023-04-10T04:07:04.659Z,24.63
2023-04-10T04:09:32.461Z,20.77
2023-04-10T04:12:02.293Z,19.33
2023-04-10T04:14:30.061Z,22.20
2023-04-10T04:16:58.101Z,20.50
2023-04-10T04:19:29.381Z,20.00
2023-04-10T04:21:57.812Z,20.23
2023-04-10T04:24:25.758Z,18.90
2023-04-10T04:26:53.587Z,19.57
2023-04-10T04:29:22.999Z,22.67
2023-04-10T04:31:52.174Z,18.07
2023-04-10T04:34:19.980Z,15.73
2023-04-10T04:36:47.871Z,20.03
2023-04-10T04:39:15.940Z,21.50
2023-04-10T04:41:44.397Z,15.53
2023-04-10T04:44:12.140Z,18.03
2023-04-10T04:46:43.935Z,20.67
2023-04-10T04:49:12.373Z,15.10
2023-04-10T04:51:40.218Z,18.20
2023-04-10T04:54:08.041Z,16.10
2023-04-10T04:56:35.899Z,12.40
2023-04-10T04:59:03.918Z,14.20
2023-04-10T05:01:34.482Z,18.70
2023-04-10T05:04:03.975Z,15.87
2023-04-10T05:06:32.833Z,15.77
2023-04-10T05:09:00.777Z,18.07
2023-04-10T05:11:28.711Z,15.50
2023-04-10T05:13:56.567Z,14.80
2023-04-10T05:16:24.669Z,12.53
2023-04-10T05:18:52.995Z,12.93
2023-04-10T05:21:22.424Z,13.13
2023-04-10T05:23:50.563Z,16.17
2023-04-10T05:26:18.390Z,12.23
2023-04-10T05:28:46.495Z,11.57
2023-04-10T05:31:14.279Z,12.90
2023-04-10T05:33:42.147Z,12.07
2023-04-10T05:36:10.642Z,11.60
2023-04-10T05:38:39.842Z,13.33
2023-04-10T05:41:07.760Z,12.30
2023-04-10T05:43:35.624Z,14.60
2023-04-10T05:46:03.603Z,9.75
2023-04-10T05:48:31.614Z,12.50
2023-04-10T05:50:59.536Z,13.68
2023-04-10T05:53:31.228Z,14.60
2023-04-10T05:56:01.970Z,12.00
2023-04-10T05:58:30.289Z,14.05
2023-04-10T06:00:59.283Z,13.18
2023-04-10T06:03:30.575Z,14.85
2023-04-10T06:05:58.783Z,12.93
2023-04-10T06:08:26.624Z,14.00
2023-04-10T06:10:54.461Z,15.30
2023-04-10T06:13:24.260Z,17.02
2023-04-10T06:15:52.346Z,18.92
2023-04-10T06:18:20.375Z,15.63
2023-04-10T06:20:48.161Z,14.48
2023-04-10T06:23:16.066Z,15.73
2023-04-10T06:25:44.617Z,14.85
2023-04-10T06:28:12.560Z,13.27
2023-04-10T06:30:41.695Z,12.25
2023-04-10T06:33:09.699Z,15.82
2023-04-10T06:35:37.637Z,15.43
2023-04-10T06:38:05.828Z,13.98
2023-04-10T06:40:34.202Z,15.80
2023-04-10T06:43:02.045Z,15.45
2023-04-10T06:45:29.782Z,15.27
2023-04-10T06:47:59.032Z,13.57
2023-04-10T06:50:26.903Z,19.13
2023-04-10T06:52:56.129Z,14.80
2023-04-10T06:55:24.365Z,17.88
2023-04-10T06:57:52.318Z,16.52
2023-04-10T07:00:20.784Z,15.40
2023-04-10T07:02:48.583Z,18.85
2023-04-10T07:05:18.245Z,15.10
2023-04-10T07:07:47.480Z,18.13
2023-04-10T07:10:15.760Z,20.23
2023-04-10T07:12:44.036Z,19.25
2023-04-10T07:15:12.707Z,20.17
2023-04-10T07:17:40.747Z,20.13
2023-04-10T07:20:09.560Z,21.95
2023-04-10T07:22:38.835Z,21.45
2023-04-10T07:25:07.791Z,19.52
2023-04-10T07:27:35.829Z,18.92
2023-04-10T07:30:03.916Z,21.48
2023-04-10T07:32:32.722Z,23.38
2023-04-10T07:35:00.586Z,19.67
2023-04-10T07:37:28.679Z,20.13
2023-04-10T07:39:57.973Z,19.73
2023-04-10T07:42:26.658Z,22.42
2023-04-10T07:44:57.773Z,22.58
2023-04-10T07:47:25.927Z,22.42
2023-04-10T07:49:54.268Z,22.33
2023-04-10T07:52:25.662Z,22.17
2023-04-10T07:55:19.173Z,20.25
2023-04-10T07:57:54.277Z,23.50
2023-04-10T08:00:22.529Z,22.42
2023-04-10T08:02:51.024Z,22.92
2023-04-10T08:05:19.436Z,20.65
2023-04-10T08:07:47.550Z,22.25
2023-04-10T08:10:15.794Z,20.52
2023-04-10T08:12:45.127Z,25.35
2023-04-10T08:15:13.007Z,26.35
2023-04-10T08:17:40.980Z,23.63
2023-04-10T08:20:10.671Z,27.27
2023-04-10T08:22:39.006Z,23.83
2023-04-10T08:25:07.368Z,22.75
2023-04-10T08:27:35.274Z,23.08
2023-04-10T08:30:04.932Z,25.38
2023-04-10T08:32:32.869Z,21.05
2023-04-10T08:35:00.761Z,21.83
2023-04-10T08:37:28.768Z,23.23
2023-04-10T08:39:56.668Z,22.60
2023-04-10T08:42:25.497Z,22.00
2023-04-10T08:44:54.204Z,21.45
2023-04-10T08:47:28.983Z,24.08
2023-04-10T08:49:58.889Z,23.00
2023-04-10T08:52:27.605Z,21.70
2023-04-10T08:54:58.616Z,23.23
2023-04-10T08:57:27.314Z,24.95
2023-04-10T08:59:55.575Z,22.58
2023-04-10T09:02:25.834Z,28.05
2023-04-10T09:04:55.896Z,28.52
2023-04-10T09:07:24.358Z,24.00
2023-04-10T09:09:52.260Z,23.90
2023-04-10T09:12:23.167Z,26.25
2023-04-10T09:14:53.593Z,24.42
2023-04-10T09:17:23.305Z,25.48
2023-04-10T09:19:54.924Z,24.60
2023-04-10T09:22:32.097Z,24.50
2023-04-10T09:25:00.589Z,25.02
2023-04-10T09:27:31.412Z,24.42
2023-04-10T09:29:59.698Z,24.90
2023-04-10T09:32:39.190Z,22.77
2023-04-10T09:35:09.654Z,22.67
2023-04-10T09:37:38.042Z,21.50
2023-04-10T09:40:07.181Z,22.92
2023-04-10T09:42:37.177Z,21.92
2023-04-10T09:45:06.111Z,22.90
2023-04-10T09:47:34.307Z,24.75
2023-04-10T09:50:02.339Z,20.25
2023-04-10T09:52:33.053Z,21.75
2023-04-10T09:55:03.777Z,19.92
2023-04-10T09:57:36.855Z,19.48
2023-04-10T10:00:08.327Z,19.98
2023-04-10T10:02:40.158Z,19.95
2023-04-10T10:05:09.107Z,16.85
2023-04-10T10:07:40.433Z,19.20
2023-04-10T10:10:09.338Z,18.42
2023-04-10T10:12:46.971Z,17.73
2023-04-10T10:15:20.296Z,16.65
2023-04-10T10:17:59.290Z,16.25
2023-04-10T10:20:29.280Z,17.55
2023-04-10T10:22:59.953Z,15.32
2023-04-10T10:25:28.844Z,16.92
2023-04-10T10:27:57.283Z,19.70
2023-04-10T10:30:29.985Z,15.32
2023-04-10T10:33:00.253Z,18.52
2023-04-10T10:35:30.137Z,18.73
2023-04-10T10:38:01.501Z,15.48
2023-04-10T10:40:33.060Z,16.50
2023-04-10T10:43:13.367Z,16.67
2023-04-10T10:45:49.883Z,14.65
2023-04-10T10:48:17.805Z,17.30
2023-04-10T10:50:53.959Z,16.48
2023-04-10T10:53:38.670Z,17.67
2023-04-10T10:56:34.727Z,15.65
2023-04-10T10:59:06.517Z,16.30
2023-04-10T11:01:34.616Z,18.27
2023-04-10T11:04:23.839Z,17.33
2023-04-10T11:06:53.431Z,15.63
2023-04-10T11:09:53.700Z,16.52
2023-04-10T11:12:24.642Z,14.70
2023-04-10T11:14:59.953Z,13.88
2023-04-10T11:17:54.403Z,16.50
2023-04-10T11:20:27.226Z,17.77
2023-04-10T11:23:12.320Z,15.25
2023-04-10T11:25:51.377Z,15.77
2023-04-10T11:28:42.078Z,15.07
2023-04-10T11:31:19.452Z,16.48
2023-04-10T11:33:48.116Z,13.40
2023-04-10T11:36:18.039Z,14.15
2023-04-10T11:38:56.690Z,14.93
2023-04-10T11:41:30.542Z,16.33
2023-04-10T11:44:00.657Z,12.95
2023-04-10T11:46:29.315Z,14.25
2023-04-10T11:48:59.556Z,14.70
2023-04-10T11:51:28.300Z,12.45
2023-04-10T11:54:06.354Z,13.95
2023-04-10T11:56:34.421Z,11.05
2023-04-10T11:59:07.515Z,9.68
2023-04-10T12:01:37.915Z,13.02
2023-04-10T12:04:15.278Z,15.15
2023-04-10T12:06:46.128Z,16.02
2023-04-10T12:09:15.649Z,14.07
2023-04-10T12:11:51.438Z,12.02
2023-04-10T12:14:21.607Z,13.80
2023-04-10T12:16:50.281Z,13.38
2023-04-10T12:19:19.342Z,14.93
2023-04-10T12:21:47.576Z,13.70
2023-04-10T12:24:45.096Z,15.95
2023-04-10T12:27:20.049Z,14.02
2023-04-10T12:29:50.737Z,13.98
2023-04-10T12:32:19.171Z,12.75
2023-04-10T12:34:51.707Z,13.75
2023-04-10T12:37:20.034Z,13.32
2023-04-10T12:39:48.193Z,14.60
2023-04-10T12:42:17.972Z,13.40
2023-04-10T12:44:54.652Z,13.45
2023-04-10T12:47:22.789Z,14.23
2023-04-10T12:50:07.568Z,11.85
2023-04-10T12:52:36.005Z,11.65
2023-04-10T12:55:15.406Z,12.50
2023-04-10T12:57:44.913Z,12.95
2023-04-10T13:00:18.448Z,13.18
2023-04-10T13:02:47.017Z,14.52
2023-04-10T13:05:15.541Z,14.50
2023-04-10T13:07:43.327Z,15.10
2023-04-10T13:10:11.417Z,13.88
2023-04-10T13:12:40.684Z,12.05
2023-04-10T13:15:09.015Z,11.80
2023-04-10T13:17:38.385Z,12.05
2023-04-10T13:20:07.427Z,10.40
2023-04-10T13:22:35.249Z,11.25
2023-04-10T13:25:03.803Z,10.88
2023-04-10T13:27:32.319Z,10.82
2023-04-10T13:30:00.556Z,9.18
2023-04-10T13:32:28.596Z,9.93
2023-04-10T13:34:57.964Z,12.13
2023-04-10T13:37:26.718Z,11.05
2023-04-10T13:39:54.855Z,11.45
2023-04-10T13:42:22.826Z,10.43
2023-04-10T13:44:50.701Z,11.02
2023-04-10T13:47:18.520Z,9.48
2023-04-10T13:49:46.494Z,13.10
2023-04-10T13:52:15.674Z,11.48
2023-04-10T13:54:43.578Z,11.13
2023-04-10T13:57:11.304Z,10.82
2023-04-10T13:59:39.327Z,10.23
2023-04-10T14:02:07.168Z,12.77
2023-04-10T14:04:34.895Z,10.27
2023-04-10T14:07:03.029Z,10.45
2023-04-10T14:09:32.225Z,9.80
2023-04-10T14:12:01.507Z,11.95
2023-04-10T14:14:30.262Z,9.48
2023-04-10T14:16:59.260Z,10.20
2023-04-10T14:19:27.191Z,9.63
2023-04-10T14:21:54.950Z,8.63
2023-04-10T14:24:22.858Z,9.55
2023-04-10T14:26:53.695Z,9.38
2023-04-10T14:29:28.511Z,9.20
2023-04-10T14:32:03.117Z,11.20
2023-04-10T14:34:30.920Z,10.82
2023-04-10T14:36:58.785Z,9.88
2023-04-10T14:39:26.870Z,9.43
2023-04-10T14:41:56.993Z,11.32
2023-04-10T14:44:24.834Z,11.27
2023-04-10T14:46:52.599Z,10.20
2023-04-10T14:49:20.365Z,11.85
2023-04-10T14:51:50.083Z,11.30
2023-04-10T14:54:21.635Z,10.57
2023-04-10T14:56:50.151Z,12.40
2023-04-10T14:59:19.479Z,10.98
2023-04-10T15:01:47.546Z,11.00
2023-04-10T15:04:15.479Z,10.77
2023-04-10T15:06:43.266Z,10.70
2023-04-10T15:09:11.019Z,11.45
2023-04-10T15:11:38.771Z,9.75
2023-04-10T15:14:07.413Z,8.50
2023-04-10T15:16:36.529Z,11.40
2023-04-10T15:19:04.365Z,10.73
2023-04-10T15:21:32.421Z,8.65
2023-04-10T15:24:01.069Z,10.00
2023-04-10T15:26:28.900Z,9.82
2023-04-10T15:28:56.799Z,8.55
2023-04-10T15:31:24.697Z,10.38
2023-04-10T15:33:54.070Z,7.65
2023-04-10T15:36:22.332Z,12.80
2023-04-10T15:38:50.439Z,9.48
2023-04-10T15:41:18.346Z,8.90
2023-04-10T15:43:46.548Z,8.13
2023-04-10T15:46:15.842Z,8.50
2023-04-10T15:48:45.958Z,11.27
2023-04-10T15:51:15.394Z,10.13
2023-04-10T15:53:43.551Z,11.38
2023-04-10T15:56:11.394Z,10.38
2023-04-10T15:58:41.610Z,10.70
2023-04-10T16:01:09.897Z,8.68
2023-04-10T16:03:37.889Z,8.77
2023-04-10T16:06:06.436Z,10.70
2023-04-10T16:08:35.590Z,9.52
2023-04-10T16:11:03.673Z,9.40
2023-04-10T16:13:31.411Z,10.63
2023-04-10T16:15:59.419Z,9.75
2023-04-10T16:18:27.112Z,11.23
2023-04-10T16:20:58.585Z,9.63
2023-04-10T16:23:26.568Z,9.18
2023-04-10T16:25:55.896Z,9.77
2023-04-10T16:28:23.627Z,10.73
2023-04-10T16:30:51.685Z,8.77
2023-04-10T16:33:19.450Z,11.95
2023-04-10T16:35:47.790Z,11.68
2023-04-10T16:38:15.710Z,12.70
2023-04-10T16:40:43.499Z,9.10
2023-04-10T16:43:14.934Z,11.43
2023-04-10T16:45:42.845Z,9.35
2023-04-10T16:48:10.596Z,8.98
2023-04-10T16:50:38.375Z,9.32
2023-04-10T16:53:06.066Z,10.50
2023-04-10T16:55:33.724Z,9.52
2023-04-10T16:58:01.603Z,9.57
2023-04-10T17:00:31.001Z,9.48
2023-04-10T17:03:00.231Z,8.68
2023-04-10T17:05:34.297Z,11.45
2023-04-10T17:08:02.067Z,11.63
2023-04-10T17:10:29.975Z,9.50
2023-04-10T17:12:57.852Z,8.85
2023-04-10T17:15:25.816Z,10.10
2023-04-10T17:17:55.085Z,10.30
2023-04-10T17:20:22.883Z,11.82
2023-04-10T17:22:50.739Z,9.57
2023-04-10T17:25:18.924Z,10.90
2023-04-10T17:27:46.715Z,9.80
2023-04-10T17:30:15.506Z,11.25
2023-04-10T17:32:43.524Z,11.30
2023-04-10T17:35:12.759Z,10.43
2023-04-10T17:37:40.645Z,9.80
2023-04-10T17:40:09.781Z,10.43
2023-04-10T17:42:37.530Z,10.35
2023-04-10T17:45:06.094Z,12.52
2023-04-10T17:47:33.987Z,10.20
2023-04-10T17:50:01.803Z,9.75
2023-04-10T17:52:31.068Z,10.40
2023-04-10T17:55:01.476Z,10.88
2023-04-10T17:57:29.378Z,10.10
2023-04-10T17:59:57.199Z,10.13
2023-04-10T18:02:24.985Z,10.05
2023-04-10T18:04:52.747Z,10.65
2023-04-10T18:07:20.578Z,11.00
2023-04-10T18:09:49.701Z,9.80
2023-04-10T18:12:17.529Z,10.02
2023-04-10T18:14:48.038Z,12.43
2023-04-10T18:17:15.838Z,10.73
2023-04-10T18:19:43.553Z,12.27
2023-04-10T18:22:11.834Z,10.32
2023-04-10T18:24:39.677Z,9.45
2023-04-10T18:27:08.812Z,10.48
2023-04-10T18:29:36.608Z,10.88
2023-04-10T18:32:04.522Z,10.85
2023-04-10T18:34:32.257Z,12.75
2023-04-10T18:37:00.411Z,14.98
2023-04-10T18:39:28.143Z,12.82
2023-04-10T18:41:57.329Z,15.02
2023-04-10T18:44:27.915Z,14.13
2023-04-10T18:47:03.756Z,15.18
2023-04-10T18:49:33.021Z,14.77
2023-04-10T18:52:01.411Z,12.38
2023-04-10T18:54:30.050Z,14.18
2023-04-10T18:56:57.821Z,12.05
2023-04-10T18:59:28.672Z,12.15
2023-04-10T19:01:56.670Z,11.00
2023-04-10T19:04:25.601Z,12.40
2023-04-10T19:06:53.683Z,12.60
2023-04-10T19:09:21.465Z,12.40
2023-04-10T19:11:49.169Z,9.68
2023-04-10T19:14:16.849Z,10.98
2023-04-10T19:16:46.030Z,11.52
2023-04-10T19:19:13.697Z,10.13
2023-04-10T19:21:41.464Z,10.05
2023-04-10T19:24:09.170Z,10.15
2023-04-10T19:26:37.823Z,10.13
2023-04-10T19:29:06.109Z,9.70
2023-04-10T19:31:34.032Z,9.20
2023-04-10T19:34:09.175Z,11.25
2023-04-10T19:36:37.429Z,10.02
2023-04-10T19:39:06.199Z,9.95
2023-04-10T19:41:33.891Z,10.27
2023-04-10T19:44:01.720Z,12.43
2023-04-10T19:46:30.810Z,10.40
2023-04-10T19:48:58.847Z,8.75
2023-04-10T19:51:28.352Z,10.93
2023-04-10T19:53:57.467Z,9.15
2023-04-10T19:56:26.946Z,11.65
2023-04-10T19:58:54.755Z,10.93
2023-04-10T20:01:24.258Z,9.20
2023-04-10T20:03:52.386Z,8.52
2023-04-10T20:06:22.024Z,8.10
2023-04-10T20:08:51.499Z,10.30
2023-04-10T20:11:19.294Z,8.73
2023-04-10T20:13:47.015Z,8.35
2023-04-10T20:16:14.889Z,9.18
2023-04-10T20:18:42.674Z,9.70
2023-04-10T20:21:10.553Z,11.52
2023-04-10T20:23:38.644Z,7.97
2023-04-10T20:26:08.603Z,9.23
2023-04-10T20:28:36.438Z,9.57
2023-04-10T20:31:04.384Z,7.90
2023-04-10T20:33:32.202Z,8.13
2023-04-10T20:36:00.089Z,8.77
2023-04-10T20:38:27.889Z,8.55
2023-04-10T20:40:55.708Z,9.25
2023-04-10T20:43:26.267Z,9.25
2023-04-10T20:45:53.998Z,9.27
2023-04-10T20:48:21.766Z,7.63
2023-04-10T20:50:49.727Z,8.32
2023-04-10T20:53:17.572Z,7.50
2023-04-10T20:55:45.387Z,8.10
2023-04-10T20:58:13.129Z,8.02
2023-04-10T21:00:42.280Z,8.90
2023-04-10T21:03:10.214Z,8.43
2023-04-10T21:05:40.959Z,7.47
2023-04-10T21:08:08.883Z,7.55
2023-04-10T21:10:40.107Z,8.15
2023-04-10T21:13:07.939Z,8.10
2023-04-10T21:15:35.731Z,8.55
2023-04-10T21:18:05.045Z,7.38
2023-04-10T21:20:33.782Z,7.93
2023-04-10T21:23:01.649Z,8.23
2023-04-10T21:25:31.663Z,8.77
2023-04-10T21:27:59.709Z,7.57
2023-04-10T21:30:27.434Z,8.65
2023-04-10T21:32:55.716Z,9.07
2023-04-10T21:35:25.118Z,8.55
2023-04-10T21:37:57.609Z,8.30
2023-04-10T21:40:29.995Z,8.05
2023-04-10T21:42:57.710Z,7.30
2023-04-10T21:45:25.607Z,7.60
2023-04-10T21:47:53.520Z,7.78
2023-04-10T21:50:21.516Z,8.65
2023-04-10T21:52:50.671Z,8.52
2023-04-10T21:55:18.649Z,8.55
2023-04-10T21:57:46.533Z,7.25
2023-04-10T22:00:16.880Z,8.02
2023-04-10T22:02:45.809Z,9.30
2023-04-10T22:05:14.497Z,9.02
2023-04-10T22:07:42.184Z,7.15
2023-04-10T22:10:11.618Z,7.97
2023-04-10T22:12:39.453Z,8.93
2023-04-10T22:15:07.966Z,9.93
2023-04-10T22:17:35.805Z,10.60
2023-04-10T22:20:03.691Z,8.63
2023-04-10T22:22:31.573Z,9.52
2023-04-10T22:24:59.517Z,9.35
2023-04-10T22:27:28.642Z,7.97
2023-04-10T22:30:03.140Z,9.15
2023-04-10T22:32:32.402Z,8.88
2023-04-10T22:35:00.601Z,8.73
2023-04-10T22:37:28.874Z,8.02
2023-04-10T22:39:56.771Z,8.23
2023-04-10T22:42:25.153Z,7.63
2023-04-10T22:44:54.804Z,8.65
2023-04-10T22:47:22.696Z,8.25
2023-04-10T22:49:50.995Z,8.35
2023-04-10T22:52:18.764Z,7.90
2023-04-10T22:54:47.195Z,9.40
2023-04-10T22:57:14.964Z,7.80
2023-04-10T22:59:45.702Z,8.15
2023-04-10T23:02:14.859Z,9.73
2023-04-10T23:04:43.354Z,8.18
2023-04-10T23:07:11.123Z,8.90
2023-04-10T23:09:38.823Z,8.20
2023-04-10T23:12:06.870Z,7.60
2023-04-10T23:14:35.787Z,8.52
2023-04-10T23:17:03.686Z,8.90
2023-04-10T23:19:32.762Z,7.88
2023-04-10T23:22:00.608Z,8.45
2023-04-10T23:24:28.408Z,10.85
2023-04-10T23:26:56.280Z,8.07
2023-04-10T23:29:24.028Z,8.75
2023-04-10T23:31:51.921Z,9.05
2023-04-10T23:34:21.048Z,8.50
2023-04-10T23:36:50.290Z,8.27
2023-04-10T23:39:18.034Z,9.50
2023-04-10T23:41:45.800Z,9.00
2023-04-10T23:44:13.636Z,8.48
2023-04-10T23:46:41.327Z,10.40
2023-04-10T23:49:09.025Z,8.48
2023-04-10T23:51:36.756Z,10.27
2023-04-10T23:54:06.403Z,9.00
2023-04-10T23:56:34.171Z,9.43
2023-04-10T23:59:01.945Z,8.73
